Time;durP1;ratioP1;P1;durP2;ratioP2;P2;SDS_P1;SDS_P2;PMS_P1;PMS_P2;Temp;Humidity;BMP_temperature;BMP_pressure;BME280_temperature;BME280_humidity;BME280_pressure;Samples;Min_cycle;Max_cycle;Signal;HPM_P1;HPM_P2
2022/01/19 00:00:12;;;;;;;48.97;15.18;;;;;;;0.93;96.16;103202.97;5021641;28;20479;-76
2022/01/19 00:02:38;;;;;;;29.23;13.80;;;;;;;0.90;96.08;103197.63;5021692;28;20091;-75
2022/01/19 00:05:05;;;;;;;56.53;13.77;;;;;;;0.87;96.00;103186.88;5044819;28;20018;-77
2022/01/19 00:07:31;;;;;;;42.58;15.13;;;;;;;0.84;95.99;103176.13;5021977;28;20029;-76
2022/01/19 00:10:02;;;;;;;67.55;16.17;;;;;;;0.82;95.97;103172.56;5023115;28;20021;-76
2022/01/19 00:12:27;;;;;;;51.20;15.85;;;;;;;0.75;95.96;103168.97;5027520;28;20083;-76
2022/01/19 00:14:52;;;;;;;64.78;16.35;;;;;;;0.69;96.62;103180.50;5022894;28;20474;-76
2022/01/19 00:17:18;;;;;;;60.90;16.40;;;;;;;0.73;96.58;103187.69;5020828;28;20029;-77
2022/01/19 00:19:43;;;;;;;80.78;17.40;;;;;;;0.75;96.81;103187.72;5022735;28;20018;-75
2022/01/19 00:22:09;;;;;;;39.15;15.85;;;;;;;0.74;96.17;103188.56;5017464;28;20029;-75
2022/01/19 00:24:34;;;;;;;176.90;17.20;;;;;;;0.73;96.40;103178.75;5027569;28;20021;-75
2022/01/19 00:26:59;;;;;;;86.60;16.60;;;;;;;0.69;96.37;103175.16;5028069;28;20056;-76
2022/01/19 00:29:25;;;;;;;73.30;14.93;;;;;;;0.67;96.71;103158.19;5027263;28;20029;-75
2022/01/19 00:31:50;;;;;;;105.05;13.40;;;;;;;0.70;97.27;103136.78;5021213;28;20029;-75
2022/01/19 00:34:15;;;;;;;55.15;13.13;;;;;;;0.69;96.85;103123.38;5027278;28;20025;-75
2022/01/19 00:36:40;;;;;;;42.08;12.02;;;;;;;0.64;96.85;103096.56;5028908;28;20465;-76
2022/01/19 00:39:06;;;;;;;35.22;12.88;;;;;;;0.59;96.34;103084.03;5030233;28;20093;-75
2022/01/19 00:41:31;;;;;;;28.55;12.98;;;;;;;0.53;95.74;103075.97;5018065;28;20073;-76
2022/01/19 00:43:56;;;;;;;29.20;12.02;;;;;;;0.50;96.12;103076.84;5029066;28;20036;-75
2022/01/19 00:46:21;;;;;;;25.77;11.18;;;;;;;0.49;95.72;103088.44;5021437;28;20543;-76
2022/01/19 00:48:47;;;;;;;31.45;11.13;;;;;;;0.47;95.55;103101.84;5020402;28;20056;-75
2022/01/19 00:51:12;;;;;;;23.52;11.50;;;;;;;0.45;95.44;103108.06;5026280;28;20051;-75
2022/01/19 00:53:37;;;;;;;24.65;11.13;;;;;;;0.40;95.56;103117.84;5029788;28;20021;-76
2022/01/19 00:56:03;;;;;;;22.40;11.00;;;;;;;0.37;95.47;103115.16;5026484;28;20118;-75
2022/01/19 00:58:28;;;;;;;28.00;11.38;;;;;;;0.32;95.78;103107.09;5029065;28;20100;-76
2022/01/19 01:00:53;;;;;;;29.63;11.50;;;;;;;0.27;95.65;103119.53;5022852;28;20117;-75
2022/01/19 01:03:19;;;;;;;22.02;11.32;;;;;;;0.19;95.58;103121.28;5009355;28;20109;-74
2022/01/19 01:05:44;;;;;;;28.13;11.02;;;;;;;0.17;95.68;103115.03;5022847;28;20109;-76
2022/01/19 01:08:10;;;;;;;26.08;11.85;;;;;;;0.13;95.83;103102.50;5018526;28;20080;-75
2022/01/19 01:10:41;;;;;;;28.88;11.90;;;;;;;0.10;95.60;103083.75;5014310;28;20026;-76
2022/01/19 01:16:05;;;;;;;33.30;11.13;;;;;;;0.02;96.10;103073.00;5004057;28;20421;-76
2022/01/19 01:18:33;;;;;;;28.50;11.02;;;;;;;0.05;96.02;103064.06;5025763;28;20021;-75
2022/01/19 01:20:59;;;;;;;26.60;11.82;;;;;;;0.01;95.76;103055.16;5028580;28;20029;-76
2022/01/19 01:23:26;;;;;;;29.52;11.13;;;;;;;-0.08;95.15;103044.38;5024834;28;20081;-76
2022/01/19 01:25:52;;;;;;;35.58;11.65;;;;;;;-0.14;95.20;103038.97;5025584;28;20120;-76
2022/01/19 01:28:18;;;;;;;32.95;11.57;;;;;;;-0.20;95.13;103033.59;5013840;28;20386;-75
2022/01/19 01:30:44;;;;;;;27.90;10.40;;;;;;;-0.29;95.34;103018.38;5014048;28;20473;-76
2022/01/19 01:33:10;;;;;;;28.70;9.98;;;;;;;-0.32;95.68;103013.91;5015521;28;20018;-75
2022/01/19 01:35:36;;;;;;;20.17;10.90;;;;;;;-0.36;95.81;103001.38;5013592;28;20025;-76
2022/01/19 01:38:03;;;;;;;16.20;10.00;;;;;;;-0.37;95.81;102980.88;5027893;28;20025;-76
2022/01/19 01:40:31;;;;;;;30.70;11.57;;;;;;;-0.36;95.55;102971.09;5016611;28;20030;-76
2022/01/19 01:42:57;;;;;;;28.52;10.85;;;;;;;-0.38;95.42;102972.84;5028302;28;20538;-76
2022/01/19 01:45:28;;;;;;;19.85;10.95;;;;;;;-0.44;95.16;102963.00;5021867;28;20044;-76
2022/01/19 01:48:03;;;;;;;18.85;10.38;;;;;;;-0.44;95.24;102968.34;5012890;28;20029;-76
2022/01/19 01:53:26;;;;;;;19.08;10.27;;;;;;;-0.48;95.14;102976.34;5024573;28;20040;-76
2022/01/19 01:56:13;;;;;;;37.45;10.93;;;;;;;-0.50;95.08;102987.03;5007293;28;20034;-76
2022/01/19 01:58:47;;;;;;;22.25;11.68;;;;;;;-0.55;95.18;102978.06;5009859;28;20029;-77
2022/01/19 02:01:13;;;;;;;20.88;10.35;;;;;;;-0.52;95.62;102991.44;5011396;28;20022;-77
2022/01/19 02:03:41;;;;;;;19.67;9.98;;;;;;;-0.50;95.44;102976.34;5008225;28;20499;-76
2022/01/19 02:08:55;;;;;;;29.17;10.48;;;;;;;-0.47;95.25;102967.41;5028376;28;20395;-76
2022/01/19 02:23:16;;;;;;;20.83;9.73;;;;;;;-0.65;95.40;102936.13;5027815;28;20163;-76
2022/01/19 02:25:44;;;;;;;19.27;9.80;;;;;;;-0.66;95.12;102943.22;5021065;28;20026;-76
2022/01/19 02:41:40;;;;;;;54.60;12.23;;;;;;;-0.83;95.23;102878.97;5021630;28;20037;-78
2022/01/19 02:44:09;;;;;;;55.33;12.32;;;;;;;-0.84;95.37;102881.63;5030401;28;20072;-77
2022/01/19 02:46:52;;;;;;;69.72;15.05;;;;;;;-0.89;95.33;102865.56;5023277;28;20397;-76
2022/01/19 02:49:19;;;;;;;35.63;11.95;;;;;;;-0.89;95.36;102864.66;5025738;28;20033;-76
2022/01/19 02:51:47;;;;;;;66.78;13.52;;;;;;;-0.97;95.37;102864.63;5024984;28;20026;-79
2022/01/19 02:54:21;;;;;;;36.78;11.80;;;;;;;-1.01;95.34;102856.56;5027362;28;20116;-78
2022/01/19 02:56:51;;;;;;;45.30;12.15;;;;;;;-1.07;95.29;102846.75;5027558;28;20067;-79
2022/01/19 03:09:43;;;;;;;39.45;13.55;;;;;;;-1.11;95.23;102826.22;5029404;28;20025;-77
2022/01/19 03:12:09;;;;;;;27.35;12.27;;;;;;;-1.14;95.67;102815.50;5025011;28;20025;-79
2022/01/19 03:14:35;;;;;;;40.35;13.50;;;;;;;-1.18;95.77;102811.91;5025327;28;20048;-79
2022/01/19 03:17:00;;;;;;;63.53;15.48;;;;;;;-1.17;95.65;102802.13;5025559;28;20462;-76
2022/01/19 03:19:28;;;;;;;54.08;13.32;;;;;;;-1.19;95.83;102806.56;5027015;28;20060;-78
2022/01/19 03:21:53;;;;;;;40.60;13.75;;;;;;;-1.22;95.60;102804.75;5027346;28;20518;-77
2022/01/19 03:24:19;;;;;;;33.25;13.07;;;;;;;-1.24;95.79;102797.63;5024078;28;20100;-78
2022/01/19 03:26:45;;;;;;;26.65;12.73;;;;;;;-1.26;95.61;102796.72;5026646;28;20037;-78
2022/01/19 03:29:10;;;;;;;25.38;11.95;;;;;;;-1.26;96.00;102788.72;5027626;28;20036;-76
2022/01/19 03:31:35;;;;;;;59.13;12.20;;;;;;;-1.24;96.09;102790.53;5022666;28;20021;-77
2022/01/19 03:34:05;;;;;;;51.00;13.98;;;;;;;-1.26;95.86;102786.94;5024983;28;20083;-78
2022/01/19 03:36:31;;;;;;;32.35;13.07;;;;;;;-1.24;96.09;102785.19;5026468;28;20029;-78
2022/01/19 03:38:56;;;;;;;66.45;13.57;;;;;;;-1.25;96.29;102780.72;5013425;28;20417;-77
2022/01/19 03:41:22;;;;;;;24.63;12.18;;;;;;;-1.24;96.54;102781.63;5025179;28;20064;-77
2022/01/19 03:43:47;;;;;;;39.13;12.70;;;;;;;-1.24;96.31;102778.94;5022066;28;20045;-78
2022/01/19 03:46:14;;;;;;;28.05;11.77;;;;;;;-1.25;96.04;102770.06;5012730;28;20037;-76
2022/01/19 03:48:52;;;;;;;20.75;10.80;;;;;;;-1.29;95.92;102752.22;5028944;28;20028;-77
2022/01/19 03:51:18;;;;;;;19.75;10.82;;;;;;;-1.27;96.13;102749.53;5030557;28;20026;-75
2022/01/19 03:53:43;;;;;;;22.52;11.85;;;;;;;-1.26;95.99;102754.88;5020910;28;20030;-77
2022/01/19 03:56:09;;;;;;;23.85;11.80;;;;;;;-1.27;96.03;102741.53;5031064;28;20033;-76
2022/01/19 03:58:36;;;;;;;24.50;11.93;;;;;;;-1.25;96.41;102742.47;5030486;28;20028;-76
2022/01/19 04:01:03;;;;;;;21.80;12.25;;;;;;;-1.26;96.30;102735.31;5023520;28;20030;-77
2022/01/19 04:06:20;;;;;;;34.53;15.95;;;;;;;-1.18;96.80;102729.13;5018675;28;20035;-76
2022/01/19 04:08:45;;;;;;;26.65;12.93;;;;;;;-1.15;96.67;102723.81;5029589;28;20113;-76
2022/01/19 04:11:10;;;;;;;31.10;12.98;;;;;;;-1.16;96.33;102730.06;5025285;28;20761;-76
2022/01/19 04:14:21;;;;;;;29.38;12.65;;;;;;;-1.19;96.05;102719.34;5022093;28;20028;-75
2022/01/19 04:16:32;;;;;;;30.17;14.30;;;;;;;-1.20;96.47;102714.91;5010309;28;20073;-74
2022/01/19 04:21:50;;;;;;;28.60;13.90;;;;;;;-1.16;96.77;102713.16;5020971;28;20056;-77
2022/01/19 04:24:17;;;;;;;39.70;15.13;;;;;;;-1.10;97.26;102715.84;5026272;28;20055;-75
2022/01/19 04:26:44;;;;;;;52.25;17.95;;;;;;;-1.09;97.27;102712.28;5017504;28;20061;-76
2022/01/19 04:29:09;;;;;;;45.13;19.00;;;;;;;-1.10;97.39;102719.41;5030412;28;20389;-76
2022/01/19 04:31:34;;;;;;;45.15;15.55;;;;;;;-1.08;97.39;102717.63;5022283;28;20018;-76
2022/01/19 04:34:03;;;;;;;35.20;16.27;;;;;;;-1.08;97.61;102728.31;5010206;28;20056;-74
2022/01/19 04:44:58;;;;;;;52.13;19.17;;;;;;;-0.98;97.96;102707.91;5022004;28;20044;-75
2022/01/19 05:03:28;;;;;;;95.40;26.63;;;;;;;-0.63;99.04;102705.38;5018090;28;20048;-75
2022/01/19 05:06:04;;;;;;;72.18;23.67;;;;;;;-0.58;98.97;102706.28;5028473;28;20021;-75
2022/01/19 05:13:52;;;;;;;67.80;23.92;;;;;;;-0.48;98.88;102703.66;5029609;28;20091;-76
2022/01/19 05:16:22;;;;;;;73.38;23.95;;;;;;;-0.45;99.09;102701.00;5020777;28;20026;-77
2022/01/19 05:18:48;;;;;;;73.32;23.63;;;;;;;-0.40;99.15;102694.75;5017364;28;20124;-77
2022/01/19 05:21:14;;;;;;;72.00;24.92;;;;;;;-0.38;98.99;102692.97;5026214;28;20541;-77
2022/01/19 05:23:40;;;;;;;71.03;24.10;;;;;;;-0.32;99.00;102702.81;5029585;28;20029;-76
2022/01/19 05:26:05;;;;;;;80.20;26.10;;;;;;;-0.30;98.91;102703.69;5025051;28;20095;-76
2022/01/19 05:28:31;;;;;;;71.68;24.73;;;;;;;-0.31;98.93;102694.78;5027224;28;20104;-75
2022/01/19 05:30:56;;;;;;;72.50;24.40;;;;;;;-0.26;99.04;102708.16;5021805;28;20082;-74
2022/01/19 05:33:21;;;;;;;67.72;23.17;;;;;;;-0.22;98.91;102706.41;5022440;28;20318;-76
2022/01/19 05:35:47;;;;;;;72.25;22.35;;;;;;;-0.18;99.06;102703.75;5019064;28;20022;-76
2022/01/19 05:38:12;;;;;;;61.58;23.38;;;;;;;-0.15;98.58;102709.06;5013112;28;20029;-75
2022/01/19 05:40:37;;;;;;;61.30;23.45;;;;;;;-0.12;99.01;102698.38;5012493;28;20040;-76
2022/01/19 05:43:03;;;;;;;59.17;21.95;;;;;;;-0.05;98.73;102701.94;5028143;28;20091;-76
2022/01/19 05:45:29;;;;;;;54.90;21.67;;;;;;;-0.03;98.77;102697.50;5025468;28;20028;-76
2022/01/19 05:47:55;;;;;;;59.40;21.45;;;;;;;-0.01;98.61;102691.25;5019931;28;20418;-76
2022/01/19 05:50:20;;;;;;;53.42;20.08;;;;;;;0.01;99.21;102687.72;5024713;28;20068;-77
2022/01/19 05:52:46;;;;;;;51.17;21.30;;;;;;;0.01;98.69;102677.00;5028787;28;20494;-75
2022/01/19 05:55:11;;;;;;;50.67;20.77;;;;;;;0.04;98.69;102688.59;5025401;28;20025;-76
2022/01/19 05:57:36;;;;;;;46.15;20.40;;;;;;;0.05;98.61;102684.13;5028104;28;20037;-76
2022/01/19 06:00:05;;;;;;;50.30;19.63;;;;;;;0.05;98.54;102684.13;5015570;28;20048;-76
2022/01/19 06:02:30;;;;;;;43.53;18.83;;;;;;;0.09;98.57;102681.44;5008022;28;20438;-76
2022/01/19 06:04:55;;;;;;;55.28;20.45;;;;;;;0.10;98.47;102682.38;5012330;28;20160;-74
2022/01/19 06:07:28;;;;;;;55.60;20.75;;;;;;;0.12;98.56;102689.50;5007193;28;20025;-73
2022/01/19 06:10:02;;;;;;;45.70;19.98;;;;;;;0.12;98.69;102684.13;5021024;28;20508;-76
2022/01/19 06:12:28;;;;;;;53.15;19.88;;;;;;;0.14;98.52;102671.66;5012201;28;20492;-74
2022/01/19 06:14:54;;;;;;;55.15;20.60;;;;;;;0.16;98.50;102679.69;5017438;28;20113;-77
2022/01/19 06:17:19;;;;;;;47.78;19.83;;;;;;;0.18;98.45;102686.81;5006789;28;20498;-76
2022/01/19 06:19:47;;;;;;;50.00;20.50;;;;;;;0.20;98.61;102674.34;5015889;28;20112;-74
2022/01/19 06:22:14;;;;;;;48.40;19.42;;;;;;;0.20;98.42;102666.31;5007253;28;20040;-77
2022/01/19 06:24:39;;;;;;;50.25;19.90;;;;;;;0.23;98.37;102678.78;5012847;28;20025;-77
2022/01/19 06:27:05;;;;;;;47.83;19.63;;;;;;;0.25;98.51;102658.28;5015494;28;20499;-78
2022/01/19 06:29:30;;;;;;;45.35;20.10;;;;;;;0.26;98.29;102652.03;5022263;28;20026;-75
2022/01/19 06:31:56;;;;;;;55.03;19.20;;;;;;;0.27;98.39;102645.78;5014960;28;20038;-77
2022/01/19 06:34:22;;;;;;;52.97;20.30;;;;;;;0.31;98.34;102647.56;5006477;28;20033;-78
2022/01/19 06:36:51;;;;;;;44.97;19.45;;;;;;;0.31;98.26;102636.84;4996438;28;20048;-75
2022/01/19 06:39:16;;;;;;;45.65;18.95;;;;;;;0.32;98.29;102630.59;5021599;28;20029;-78
2022/01/19 06:41:42;;;;;;;40.75;18.05;;;;;;;0.35;98.18;102635.94;5026053;28;20037;-79
2022/01/19 06:44:07;;;;;;;44.28;19.35;;;;;;;0.37;98.37;102633.25;5024297;28;20034;-78
2022/01/19 06:46:33;;;;;;;45.47;18.75;;;;;;;0.37;98.25;102634.16;5011989;28;20080;-77
2022/01/19 06:48:58;;;;;;;41.45;18.70;;;;;;;0.38;98.25;102622.56;5030549;28;20080;-75
2022/01/19 06:51:23;;;;;;;47.90;18.20;;;;;;;0.39;98.17;102618.09;5006710;28;20462;-76
2022/01/19 06:53:49;;;;;;;44.72;18.80;;;;;;;0.42;98.24;102615.41;5006980;28;20034;-75
2022/01/19 06:56:15;;;;;;;49.97;20.83;;;;;;;0.42;98.24;102602.94;5005832;28;20105;-78
2022/01/19 06:58:40;;;;;;;50.33;19.70;;;;;;;0.44;98.28;102609.16;5007987;28;20054;-75
2022/01/19 07:01:06;;;;;;;52.03;20.77;;;;;;;0.44;98.15;102600.25;5010107;28;20116;-75
2022/01/19 07:03:32;;;;;;;51.45;20.50;;;;;;;0.47;98.08;102594.91;5007743;28;20102;-76
2022/01/19 07:05:58;;;;;;;46.65;17.90;;;;;;;0.49;98.18;102591.31;5006949;28;20030;-76
2022/01/19 07:08:23;;;;;;;55.13;19.80;;;;;;;0.48;98.30;102594.88;5011632;28;20092;-76
2022/01/19 07:10:49;;;;;;;45.53;19.05;;;;;;;0.49;98.40;102593.97;5007113;28;20021;-75
2022/01/19 07:13:14;;;;;;;50.55;20.23;;;;;;;0.50;98.33;102594.88;5017600;28;20026;-77
2022/01/19 07:15:40;;;;;;;52.70;20.00;;;;;;;0.54;98.24;102603.78;5007485;28;20030;-75
2022/01/19 07:18:06;;;;;;;42.85;18.45;;;;;;;0.56;98.17;102596.63;5006236;28;20049;-76
2022/01/19 07:20:33;;;;;;;49.33;19.38;;;;;;;0.55;98.08;102584.16;5007492;28;20033;-78
2022/01/19 07:23:01;;;;;;;46.55;19.77;;;;;;;0.59;98.09;102586.81;5010213;28;20045;-75
2022/01/19 07:25:27;;;;;;;49.05;19.83;;;;;;;0.59;98.21;102589.50;5013843;28;20018;-78
2022/01/19 07:27:53;;;;;;;47.30;19.42;;;;;;;0.59;98.10;102584.13;5008317;28;20433;-77
2022/01/19 07:30:18;;;;;;;45.15;19.02;;;;;;;0.63;98.15;102593.06;5015401;28;20025;-76
2022/01/19 07:32:44;;;;;;;46.15;20.45;;;;;;;0.65;98.16;102591.25;5013376;28;20077;-75
2022/01/19 07:35:10;;;;;;;42.63;19.42;;;;;;;0.64;98.21;102579.66;5011383;28;20037;-77
2022/01/19 07:37:35;;;;;;;43.50;18.35;;;;;;;0.65;98.20;102581.47;5010217;28;20045;-76
2022/01/19 07:40:01;;;;;;;50.88;20.35;;;;;;;0.67;98.12;102574.28;5015065;28;20026;-78
2022/01/19 07:42:27;;;;;;;45.85;18.98;;;;;;;0.67;98.03;102571.63;5028773;28;20091;-78
2022/01/19 07:44:53;;;;;;;43.85;19.13;;;;;;;0.70;98.07;102571.63;5029568;28;20108;-77
2022/01/19 07:47:20;;;;;;;45.45;19.27;;;;;;;0.72;98.11;102566.25;5026190;28;20104;-77
2022/01/19 07:49:45;;;;;;;39.30;19.42;;;;;;;0.75;98.44;102568.91;5028857;28;20207;-77
2022/01/19 07:52:10;;;;;;;42.35;19.23;;;;;;;0.74;98.21;102567.13;5028955;28;20060;-75
2022/01/19 07:54:35;;;;;;;43.00;19.08;;;;;;;0.79;98.29;102581.38;5021955;28;20462;-78
2022/01/19 07:57:01;;;;;;;41.70;19.05;;;;;;;0.79;98.06;102576.00;5028582;28;20115;-77
2022/01/19 07:59:26;;;;;;;39.22;18.38;;;;;;;0.83;98.23;102575.13;5028174;28;20396;-75
2022/01/19 08:01:53;;;;;;;41.95;18.25;;;;;;;0.86;98.15;102568.88;5021361;28;20029;-75
2022/01/19 08:04:19;;;;;;;45.20;19.23;;;;;;;0.87;98.10;102562.59;5024996;28;20036;-76
2022/01/19 08:06:44;;;;;;;45.17;18.92;;;;;;;0.90;98.32;102567.97;5029972;28;20466;-75
2022/01/19 08:09:10;;;;;;;45.35;18.58;;;;;;;0.93;98.28;102567.91;5030790;28;20029;-75
2022/01/19 08:11:36;;;;;;;46.28;18.35;;;;;;;0.95;98.09;102569.72;5023815;28;20465;-75
2022/01/19 08:14:01;;;;;;;37.25;16.92;;;;;;;0.96;98.14;102563.44;5024840;28;20022;-75
2022/01/19 08:16:26;;;;;;;43.33;19.83;;;;;;;0.98;98.01;102560.78;5015698;28;20029;-76
2022/01/19 08:18:51;;;;;;;41.03;18.63;;;;;;;1.02;98.35;102551.78;5019492;28;20033;-77
2022/01/19 08:21:17;;;;;;;50.60;19.23;;;;;;;1.02;98.16;102555.38;5028029;28;20527;-75
2022/01/19 08:23:42;;;;;;;46.75;18.35;;;;;;;1.06;98.27;102541.97;5027079;28;20052;-76
2022/01/19 08:26:09;;;;;;;45.05;18.23;;;;;;;1.08;98.22;102545.53;5023232;28;20033;-77
2022/01/19 08:28:34;;;;;;;36.08;17.27;;;;;;;1.09;97.87;102544.63;5023261;28;20025;-75
2022/01/19 08:30:59;;;;;;;45.97;18.33;;;;;;;1.11;98.17;102548.19;5024228;28;20040;-76
2022/01/19 08:33:25;;;;;;;48.47;18.48;;;;;;;1.12;98.17;102544.59;5013928;28;20113;-76
2022/01/19 08:35:51;;;;;;;44.55;17.45;;;;;;;1.14;97.99;102540.13;5024595;28;20056;-77
2022/01/19 08:38:17;;;;;;;40.75;17.65;;;;;;;1.17;98.05;102546.38;5018764;28;20022;-76
2022/01/19 08:40:42;;;;;;;39.40;18.15;;;;;;;1.19;97.85;102547.25;5018685;28;20033;-77
2022/01/19 08:43:08;;;;;;;45.03;18.48;;;;;;;1.20;98.11;102540.09;5020585;28;20040;-76
2022/01/19 08:45:35;;;;;;;47.33;19.67;;;;;;;1.22;97.93;102535.63;5027182;28;20433;-77
2022/01/19 08:48:00;;;;;;;39.83;17.50;;;;;;;1.22;98.01;102531.16;5025178;28;20124;-76
2022/01/19 08:50:26;;;;;;;43.22;17.92;;;;;;;1.24;97.86;102515.94;5028779;28;20108;-75
2022/01/19 08:52:51;;;;;;;46.97;19.90;;;;;;;1.27;97.97;102520.38;5027257;28;20040;-75
2022/01/19 08:55:17;;;;;;;49.88;18.60;;;;;;;1.29;97.79;102518.56;5029467;28;20028;-76
2022/01/19 08:57:44;;;;;;;37.97;17.58;;;;;;;1.31;97.92;102513.22;5024511;28;20042;-76
2022/01/19 09:00:15;;;;;;;44.10;17.63;;;;;;;1.34;97.94;102514.06;5024516;28;20500;-76
2022/01/19 09:02:42;;;;;;;40.92;17.75;;;;;;;1.36;97.96;102517.66;5022686;28;20045;-76
2022/01/19 09:05:08;;;;;;;40.78;17.35;;;;;;;1.40;97.95;102518.47;5025305;28;20481;-76
2022/01/19 09:07:33;;;;;;;36.92;17.27;;;;;;;1.41;97.97;102513.13;5029129;28;20392;-75
2022/01/19 09:09:59;;;;;;;41.72;18.73;;;;;;;1.45;97.83;102506.84;5023836;28;20444;-77
2022/01/19 09:12:24;;;;;;;38.17;17.25;;;;;;;1.46;97.75;102502.38;5025252;28;20052;-76
2022/01/19 09:14:50;;;;;;;38.63;17.48;;;;;;;1.47;97.60;102502.34;5030680;28;20021;-75
2022/01/19 09:17:15;;;;;;;39.28;17.48;;;;;;;1.50;97.77;102507.69;5032767;28;20040;-76
2022/01/19 09:19:41;;;;;;;42.17;18.80;;;;;;;1.52;97.66;102494.28;5021814;28;20033;-76
2022/01/19 09:22:09;;;;;;;41.13;18.23;;;;;;;1.52;97.76;102487.09;5025362;28;20499;-76
2022/01/19 09:24:36;;;;;;;48.22;19.27;;;;;;;1.54;97.59;102489.78;5028855;28;20517;-76
2022/01/19 09:27:01;;;;;;;37.65;16.15;;;;;;;1.56;97.58;102498.72;5022553;28;20057;-76
2022/01/19 09:29:27;;;;;;;40.80;16.95;;;;;;;1.62;97.46;102495.06;5028036;28;20061;-76
2022/01/19 09:31:54;;;;;;;37.85;18.25;;;;;;;1.62;97.29;102487.91;5025097;28;20018;-76
2022/01/19 09:34:21;;;;;;;36.47;17.00;;;;;;;1.64;97.53;102493.28;5017368;28;20076;-75
2022/01/19 09:36:48;;;;;;;40.35;18.55;;;;;;;1.66;97.51;102487.00;5028223;28;20535;-77
2022/01/19 09:39:16;;;;;;;42.10;18.08;;;;;;;1.68;97.54;102489.66;5015150;28;20057;-76
2022/01/19 09:41:43;;;;;;;44.92;18.90;;;;;;;1.69;97.51;102475.34;5016911;28;20478;-76
2022/01/19 09:44:09;;;;;;;36.75;16.48;;;;;;;1.69;97.59;102467.31;5029168;28;20029;-75
2022/01/19 09:46:35;;;;;;;38.17;16.85;;;;;;;1.70;97.26;102459.22;5012750;28;20025;-76
2022/01/19 09:49:01;;;;;;;46.45;18.23;;;;;;;1.72;97.19;102457.41;5026314;28;20075;-75
2022/01/19 09:51:28;;;;;;;39.90;18.17;;;;;;;1.73;97.37;102447.59;5026577;28;20025;-75
2022/01/19 09:53:53;;;;;;;39.78;17.05;;;;;;;1.77;97.39;102449.31;5023089;28;20408;-76
2022/01/19 09:56:20;;;;;;;37.15;16.35;;;;;;;1.81;97.76;102451.06;5019760;28;20116;-75
2022/01/19 09:58:45;;;;;;;37.97;16.13;;;;;;;1.83;97.53;102443.91;5029334;28;20501;-76
2022/01/19 10:01:16;;;;;;;44.83;18.40;;;;;;;1.86;97.42;102434.91;5022535;28;20469;-76
2022/01/19 10:03:41;;;;;;;40.97;17.90;;;;;;;1.91;97.58;102447.41;5022754;28;20108;-76
2022/01/19 10:06:10;;;;;;;35.10;18.02;;;;;;;1.92;97.89;102443.81;5027853;28;20113;-76
2022/01/19 10:08:44;;;;;;;41.40;18.15;;;;;;;1.97;97.50;102441.06;5028190;28;20052;-76
2022/01/19 10:16:58;;;;;;;38.63;16.55;;;;;;;1.98;97.34;102430.31;5018641;28;20014;-76
2022/01/19 10:19:49;;;;;;;41.40;16.98;;;;;;;2.10;97.32;102428.38;5020892;28;20033;-75
2022/01/19 10:22:26;;;;;;;35.65;16.38;;;;;;;2.12;97.14;102421.22;5026656;28;20040;-77
2022/01/19 10:24:56;;;;;;;36.35;17.48;;;;;;;2.17;97.31;102425.63;5017835;28;20037;-76
2022/01/19 10:27:25;;;;;;;32.53;17.35;;;;;;;2.21;97.08;102423.78;5023962;28;20374;-76
2022/01/19 10:30:04;;;;;;;39.42;16.50;;;;;;;2.22;97.13;102422.88;5012842;28;20041;-76
2022/01/19 10:32:48;;;;;;;39.65;17.70;;;;;;;2.28;97.28;102414.72;5023867;28;20103;-76
2022/01/19 10:35:15;;;;;;;31.33;15.90;;;;;;;2.34;97.15;102409.31;5027078;28;20032;-77
2022/01/19 10:37:40;;;;;;;36.10;17.38;;;;;;;2.30;97.07;102386.97;5027782;28;20396;-76
2022/01/19 10:40:06;;;;;;;37.72;17.40;;;;;;;2.41;96.96;102385.94;5016350;28;20017;-76
2022/01/19 10:42:33;;;;;;;39.42;16.35;;;;;;;2.44;96.99;102389.47;5027184;28;20044;-76
2022/01/19 10:45:04;;;;;;;36.47;16.17;;;;;;;2.50;96.93;102383.13;5021252;28;20030;-76
2022/01/19 10:47:56;;;;;;;37.95;17.08;;;;;;;2.53;96.73;102383.97;5017298;28;20555;-77
2022/01/19 10:50:31;;;;;;;35.75;16.50;;;;;;;2.55;96.22;102376.75;5013890;28;20358;-75
2022/01/19 10:52:58;;;;;;;35.22;15.77;;;;;;;2.60;96.26;102389.25;5025383;28;20025;-76
2022/01/19 10:55:30;;;;;;;34.28;15.75;;;;;;;2.60;96.20;102391.94;5026538;28;20075;-76
2022/01/19 10:57:58;;;;;;;31.58;16.30;;;;;;;2.60;96.06;102382.06;5027987;28;20049;-77
2022/01/19 11:00:28;;;;;;;36.38;16.85;;;;;;;2.64;96.49;102383.78;5015922;28;20500;-75
2022/01/19 11:02:56;;;;;;;34.38;17.15;;;;;;;2.65;96.08;102372.13;5020718;28;20056;-77
2022/01/19 11:05:43;;;;;;;32.70;16.10;;;;;;;2.69;96.16;102362.22;5027832;28;20025;-75
2022/01/19 11:08:09;;;;;;;35.72;16.60;;;;;;;2.71;96.30;102363.13;5030286;28;20463;-75
2022/01/19 11:10:35;;;;;;;33.80;16.52;;;;;;;2.73;96.32;102366.66;5026587;28;20025;-75
2022/01/19 11:13:00;;;;;;;31.85;16.50;;;;;;;2.74;96.26;102354.97;5011667;28;20025;-75
2022/01/19 11:15:26;;;;;;;34.30;16.02;;;;;;;2.72;96.03;102344.28;5011996;28;20040;-75
2022/01/19 11:17:51;;;;;;;36.33;16.13;;;;;;;2.78;96.07;102337.91;5030188;28;20052;-75
2022/01/19 11:20:19;;;;;;;34.03;15.52;;;;;;;2.79;96.05;102329.81;5029408;28;20151;-76
2022/01/19 11:23:22;;;;;;;36.50;16.75;;;;;;;2.82;96.08;102336.94;5030921;28;20029;-75
2022/01/19 11:25:56;;;;;;;36.05;16.80;;;;;;;2.82;95.93;102323.50;5028173;28;20033;-76
2022/01/19 11:28:35;;;;;;;37.90;15.77;;;;;;;2.83;95.62;102327.09;5031179;28;20025;-75
2022/01/19 11:31:06;;;;;;;35.20;18.20;;;;;;;2.83;95.58;102319.03;5026280;28;20048;-76
2022/01/19 11:33:38;;;;;;;38.03;17.80;;;;;;;2.83;95.57;102309.16;5024747;28;20548;-75
2022/01/19 11:36:16;;;;;;;40.85;17.80;;;;;;;2.84;95.58;102305.53;5028844;28;20058;-74
2022/01/19 11:38:46;;;;;;;37.75;18.00;;;;;;;2.85;95.55;102293.91;5023781;28;20516;-75
2022/01/19 11:41:14;;;;;;;36.45;17.98;;;;;;;2.86;95.53;102293.00;5024937;28;20412;-77
2022/01/19 11:43:50;;;;;;;37.08;16.80;;;;;;;2.87;95.51;102292.06;5026991;28;20488;-76
2022/01/19 11:46:31;;;;;;;41.03;18.80;;;;;;;2.88;95.45;102287.56;5014202;28;20363;-76
2022/01/19 11:48:57;;;;;;;37.35;18.00;;;;;;;2.88;95.19;102276.81;5029303;28;20037;-77
2022/01/19 11:51:29;;;;;;;39.53;20.25;;;;;;;2.90;95.41;102275.91;5029653;28;20018;-76
2022/01/19 11:54:18;;;;;;;41.80;19.58;;;;;;;2.91;95.42;102274.97;5026030;28;20018;-75
2022/01/19 11:56:59;;;;;;;35.85;17.73;;;;;;;2.92;95.46;102266.00;5026433;28;20409;-77
2022/01/19 11:59:30;;;;;;;40.25;18.60;;;;;;;2.93;95.00;102266.88;5020497;28;20025;-77
2022/01/19 12:02:36;;;;;;;41.67;18.35;;;;;;;2.94;95.30;102255.25;5027985;28;20043;-76
2022/01/19 12:05:15;;;;;;;39.90;18.92;;;;;;;2.93;95.45;102254.31;5026800;28;20428;-75
2022/01/19 12:07:43;;;;;;;40.47;19.77;;;;;;;2.95;95.22;102255.19;5021194;28;20060;-77
2022/01/19 12:10:09;;;;;;;43.25;20.23;;;;;;;2.95;95.09;102239.06;5016982;28;20552;-75
2022/01/19 12:12:43;;;;;;;36.75;18.08;;;;;;;2.93;94.98;102230.13;5029653;28;20017;-75
2022/01/19 12:15:28;;;;;;;41.25;20.52;;;;;;;2.96;95.11;102232.78;5023319;28;20033;-75
2022/01/19 12:18:07;;;;;;;43.60;19.88;;;;;;;2.99;95.09;102226.47;5028727;28;20561;-76
2022/01/19 12:20:53;;;;;;;49.00;21.17;;;;;;;3.07;95.56;102227.19;5026555;28;20029;-75
2022/01/19 12:23:26;;;;;;;43.17;20.42;;;;;;;3.12;95.08;102208.28;5028311;28;20400;-76
2022/01/19 12:25:54;;;;;;;44.20;19.60;;;;;;;3.17;94.88;102201.91;5038581;28;20057;-76
2022/01/19 12:28:38;;;;;;;51.97;23.65;;;;;;;3.23;94.97;102192.84;5015681;28;21892;-74
2022/01/19 12:31:25;;;;;;;51.85;22.63;;;;;;;3.30;95.09;102195.34;5024199;28;20386;-76
2022/01/19 12:34:18;;;;;;;47.63;22.50;;;;;;;3.36;94.53;102199.75;5021200;28;20034;-77
2022/01/19 12:36:52;;;;;;;51.53;23.50;;;;;;;3.37;94.26;102196.13;5020241;28;20509;-74
2022/01/19 12:39:26;;;;;;;49.55;23.33;;;;;;;3.39;94.36;102196.09;5021892;28;20072;-77
2022/01/19 12:41:59;;;;;;;48.45;22.52;;;;;;;3.40;94.15;102187.97;5009847;28;20088;-77
2022/01/19 12:44:40;;;;;;;47.53;23.27;;;;;;;3.42;93.72;102183.47;5007174;28;20026;-75